Aviation Digital Data Service (ADDS)

Output produced by METARs form (2038 UTC 25 November 2014)
found at http://aviationweather.gov/adds/metars/
 
KBGR 251731Z 2518/2618 22010KT P6SM SCT120 
     FM260600 26006KT P6SM BKN200 
     FM261200 VRB03KT P6SM OVC080 
     FM261600 34006KT P6SM VCSH OVC035